Time;durP1;ratioP1;P1;durP2;ratioP2;P2;SDS_P1;SDS_P2;PMS_P1;PMS_P2;Temp;Humidity;BMP_temperature;BMP_pressure;BME280_temperature;BME280_humidity;BME280_pressure;Samples;Min_cycle;Max_cycle;Signal;HPM_P1;HPM_P2
2023/04/02 00:00:25;;;;;;;;;;;;;;;5.44;100.00;101052.44;5004592;28;1231;-77
2023/04/02 00:02:53;;;;;;;;;;;;;;;5.40;100.00;101052.72;5004536;28;1442;-77
2023/04/02 00:05:30;;;;;;;;;;;;;;;5.37;100.00;101053.72;5006067;28;1742;-76
2023/04/02 00:08:01;;;;;;;;;;;;;;;5.35;100.00;101054.72;5010393;28;2502;-77
2023/04/02 00:10:27;;;;;;;;;;;;;;;5.35;100.00;101060.69;5004506;28;1460;-76
2023/04/02 00:13:03;;;;;;;;;;;;;;;5.31;100.00;101065.16;5006483;28;1973;-76
2023/04/02 00:15:29;;;;;;;;;;;;;;;5.28;100.00;101070.50;5011508;28;5237;-77
2023/04/02 00:17:55;;;;;;;;;;;;;;;5.26;100.00;101067.16;4998312;28;1318;-77
2023/04/02 00:20:21;;;;;;;;;;;;;;;5.25;100.00;101075.78;5009492;28;2018;-78
2023/04/02 00:22:47;;;;;;;;;;;;;;;5.27;100.00;101075.69;5007014;28;1486;-77
2023/04/02 00:25:13;;;;;;;;;;;;;;;5.23;100.00;101080.22;5007529;28;1300;-77
2023/04/02 00:27:38;;;;;;;;;;;;;;;5.28;100.00;101085.09;4993488;28;1602;-76
2023/04/02 00:30:03;;;;;;;;;;;;;;;5.26;100.00;101092.88;5006003;28;1423;-77
2023/04/02 00:32:32;;;;;;;;;;;;;;;5.22;100.00;101091.41;5000472;28;1902;-77
2023/04/02 00:34:58;;;;;;;;;;;;;;;5.23;100.00;101093.06;5006506;28;1330;-76
2023/04/02 00:37:26;;;;;;;;;;;;;;;5.22;100.00;101104.25;5006640;28;1571;-77
2023/04/02 00:40:05;;;;;;;;;;;;;;;5.25;100.00;101116.94;5003937;28;1321;-76
2023/04/02 00:42:30;;;;;;;;;;;;;;;5.23;100.00;101123.91;5009944;28;1472;-77
2023/04/02 00:44:57;;;;;;;;;;;;;;;5.24;100.00;101128.16;5001163;28;1630;-77
2023/04/02 00:47:34;;;;;;;;;;;;;;;5.24;100.00;101135.03;5003707;28;1360;-77
2023/04/02 00:50:03;;;;;;;;;;;;;;;5.24;100.00;101135.84;4992971;28;1264;-77
2023/04/02 00:52:30;;;;;;;;;;;;;;;5.24;100.00;101141.00;5007192;28;1902;-77
2023/04/02 00:55:06;;;;;;;;;;;;;;;5.25;100.00;101144.41;5000212;28;1828;-77
2023/04/02 00:57:32;;;;;;;;;;;;;;;5.26;100.00;101143.47;5007199;28;1521;-77
2023/04/02 01:00:14;;;;;;;;;;;;;;;5.25;100.00;101147.78;5004295;28;1616;-77
2023/04/02 01:02:40;;;;;;;;;;;;;;;5.27;100.00;101156.25;4996024;28;2091;-77
2023/04/02 01:05:20;;;;;;;;;;;;;;;5.27;100.00;101151.09;5003090;28;2156;-77
2023/04/02 01:08:02;;;;;;;;;;;;;;;5.29;100.00;101159.59;4990747;28;1271;-77
2023/04/02 01:10:40;;;;;;;;;;;;;;;5.25;100.00;101167.53;5006091;28;1437;-77
2023/04/02 01:13:24;;;;;;;;;;;;;;;5.19;100.00;101168.69;5005853;28;1906;-77
2023/04/02 01:16:10;;;;;;;;;;;;;;;5.16;100.00;101171.44;5007870;28;1134;-77
2023/04/02 01:18:53;;;;;;;;;;;;;;;5.15;100.00;101185.19;5004611;28;1298;-77
2023/04/02 01:21:51;;;;;;;;;;;;;;;5.11;100.00;101180.31;5002734;28;1290;-78
2023/04/02 01:24:17;;;;;;;;;;;;;;;5.12;100.00;101185.38;4970504;28;1376;-76
2023/04/02 01:26:45;;;;;;;;;;;;;;;5.12;100.00;101198.22;4998054;28;1553;-77
2023/04/02 01:29:22;;;;;;;;;;;;;;;5.10;100.00;101188.91;4999197;28;1311;-76
2023/04/02 01:31:48;;;;;;;;;;;;;;;5.07;100.00;101200.22;5001590;28;1623;-77
2023/04/02 01:34:15;;;;;;;;;;;;;;;5.05;100.00;101207.19;4984286;28;1963;-76
2023/04/02 01:36:59;;;;;;;;;;;;;;;5.06;100.00;101203.69;4997585;28;1479;-77
2023/04/02 01:39:27;;;;;;;;;;;;;;;5.07;100.00;101213.06;5006142;28;1455;-77
2023/04/02 01:41:59;;;;;;;;;;;;;;;5.07;100.00;101215.63;5005697;28;1625;-76
2023/04/02 01:44:36;;;;;;;;;;;;;;;5.06;100.00;101208.84;4997700;28;1182;-77
2023/04/02 01:47:04;;;;;;;;;;;;;;;5.03;100.00;101220.09;5004312;28;1272;-77
2023/04/02 01:49:29;;;;;;;;;;;;;;;5.04;100.00;101231.22;4999004;28;1156;-77
2023/04/02 01:51:57;;;;;;;;;;;;;;;5.05;100.00;101227.75;5007003;28;1248;-77
2023/04/02 01:54:23;;;;;;;;;;;;;;;5.06;100.00;101229.41;5001552;28;1967;-77
2023/04/02 01:56:49;;;;;;;;;;;;;;;5.03;100.00;101244.97;5004339;28;1419;-76
2023/04/02 01:59:17;;;;;;;;;;;;;;;4.92;100.00;101248.09;5002738;28;1436;-77
2023/04/02 02:01:48;;;;;;;;;;;;;;;4.91;100.00;101250.75;4990684;28;2178;-77
2023/04/02 02:04:13;;;;;;;;;;;;;;;4.89;100.00;101250.00;5000838;28;1232;-77
2023/04/02 02:06:39;;;;;;;;;;;;;;;4.88;100.00;101266.34;5005114;28;1352;-77
2023/04/02 02:09:06;;;;;;;;;;;;;;;4.88;100.00;101271.47;5006348;28;1170;-77
2023/04/02 02:11:32;;;;;;;;;;;;;;;4.90;100.00;101269.66;5006069;28;1466;-77
2023/04/02 02:13:58;;;;;;;;;;;;;;;4.88;100.00;101277.44;5001422;28;5017;-76
2023/04/02 02:16:26;;;;;;;;;;;;;;;4.87;100.00;101275.75;4995616;28;1510;-76
2023/04/02 02:18:52;;;;;;;;;;;;;;;4.86;100.00;101283.56;5002951;28;1209;-77
2023/04/02 02:21:33;;;;;;;;;;;;;;;4.86;100.00;101288.69;5008520;28;1446;-78
2023/04/02 02:23:59;;;;;;;;;;;;;;;4.84;100.00;101295.66;5010557;28;1371;-77
2023/04/02 02:26:26;;;;;;;;;;;;;;;4.84;100.00;101300.81;5007501;28;1359;-77
2023/04/02 02:28:53;;;;;;;;;;;;;;;4.83;100.00;101299.97;5008651;28;2015;-77
2023/04/02 02:31:26;;;;;;;;;;;;;;;4.86;100.00;101298.97;5004224;28;1349;-77
2023/04/02 02:33:53;;;;;;;;;;;;;;;4.86;100.00;101307.53;5008742;28;1977;-78
2023/04/02 02:36:24;;;;;;;;;;;;;;;4.87;100.00;101316.88;5005535;28;1499;-77
2023/04/02 02:38:56;;;;;;;;;;;;;;;4.83;100.00;101317.13;5006138;28;1499;-77
2023/04/02 02:41:25;;;;;;;;;;;;;;;4.80;100.00;101321.50;5009324;28;1427;-77
2023/04/02 02:44:11;;;;;;;;;;;;;;;4.73;100.00;101322.72;5005862;28;1499;-77
2023/04/02 02:46:38;;;;;;;;;;;;;;;4.70;100.00;101325.47;5001015;28;1441;-77
2023/04/02 02:49:04;;;;;;;;;;;;;;;4.66;100.00;101329.06;5008738;28;1709;-77
2023/04/02 02:51:43;;;;;;;;;;;;;;;4.66;100.00;101333.38;5005315;28;1619;-77
2023/04/02 02:54:08;;;;;;;;;;;;;;;4.66;100.00;101341.91;5004986;28;1942;-78
2023/04/02 02:56:36;;;;;;;;;;;;;;;4.66;100.00;101349.63;5008037;28;2411;-78
2023/04/02 02:59:04;;;;;;;;;;;;;;;4.67;100.00;101351.28;5002774;28;1283;-77
2023/04/02 03:01:29;;;;;;;;;;;;;;;4.66;100.00;101359.91;5004877;28;1436;-77
2023/04/02 03:03:55;;;;;;;;;;;;;;;4.64;100.00;101359.13;5006539;28;1229;-78
2023/04/02 03:06:20;;;;;;;;;;;;;;;4.56;100.00;101358.69;5005212;28;1211;-78
2023/04/02 03:08:45;;;;;;;;;;;;;;;4.50;100.00;101364.09;5004340;28;1268;-77
2023/04/02 03:11:14;;;;;;;;;;;;;;;4.43;100.00;101373.00;5003007;28;1705;-78
2023/04/02 03:13:45;;;;;;;;;;;;;;;4.33;100.00;101371.78;4998220;28;4938;-78
2023/04/02 03:16:15;;;;;;;;;;;;;;;4.25;100.00;101375.53;4998502;28;1271;-77
2023/04/02 03:18:58;;;;;;;;;;;;;;;4.24;100.00;101373.88;5005841;28;1604;-77
2023/04/02 03:21:26;;;;;;;;;;;;;;;4.25;100.00;101385.81;5009107;28;1488;-78
2023/04/02 03:24:04;;;;;;;;;;;;;;;4.16;100.00;101391.34;5007631;28;1515;-78
2023/04/02 03:26:36;;;;;;;;;;;;;;;4.11;100.00;101403.56;4999732;28;1321;-78
2023/04/02 03:29:06;;;;;;;;;;;;;;;4.07;100.00;101408.91;5005952;28;1500;-78
2023/04/02 03:31:34;;;;;;;;;;;;;;;4.07;100.00;101417.47;5005550;28;918;-78
2023/04/02 03:34:18;;;;;;;;;;;;;;;4.07;100.00;101422.59;5003244;28;1961;-78
2023/04/02 03:36:57;;;;;;;;;;;;;;;4.08;100.00;101434.53;4999026;28;1002;-78
2023/04/02 03:39:31;;;;;;;;;;;;;;;4.09;100.00;101446.44;5009058;28;1214;-78
2023/04/02 03:42:01;;;;;;;;;;;;;;;4.09;100.00;101456.72;4988225;28;1451;-78
2023/04/02 03:44:37;;;;;;;;;;;;;;;4.08;100.00;101460.19;5002965;28;924;-78
2023/04/02 03:47:15;;;;;;;;;;;;;;;4.10;100.00;101463.50;5005850;28;956;-77
2023/04/02 03:49:45;;;;;;;;;;;;;;;4.09;100.00;101466.16;5001737;28;1212;-78
2023/04/02 03:52:12;;;;;;;;;;;;;;;4.02;100.00;101475.88;5005879;28;1441;-78
2023/04/02 03:54:38;;;;;;;;;;;;;;;4.05;100.00;101480.84;5007150;28;2030;-77
2023/04/02 03:57:06;;;;;;;;;;;;;;;4.13;100.00;101495.91;5004146;28;1347;-78
2023/04/02 03:59:37;;;;;;;;;;;;;;;4.02;100.00;101491.25;5000407;28;1266;-78
2023/04/02 04:02:21;;;;;;;;;;;;;;;3.97;100.00;101494.03;5003090;28;1490;-78
2023/04/02 04:04:47;;;;;;;;;;;;;;;3.95;100.00;101495.81;5004276;28;1609;-77
2023/04/02 04:07:42;;;;;;;;;;;;;;;3.95;100.00;101500.94;5001045;28;1186;-79
2023/04/02 04:10:08;;;;;;;;;;;;;;;3.92;100.00;101505.38;4995602;28;1520;-78
2023/04/02 04:12:34;;;;;;;;;;;;;;;3.94;100.00;101503.56;5000878;28;1894;-78
2023/04/02 04:15:06;;;;;;;;;;;;;;;3.94;100.00;101508.72;4989681;28;4879;-78
2023/04/02 04:17:37;;;;;;;;;;;;;;;3.93;100.00;101517.31;5007863;28;1384;-78
2023/04/02 04:20:06;;;;;;;;;;;;;;;3.96;100.00;101527.47;5005461;28;1454;-78
2023/04/02 04:22:32;;;;;;;;;;;;;;;3.96;100.00;101522.31;5005143;28;1361;-77
2023/04/02 04:24:59;;;;;;;;;;;;;;;3.97;100.00;101529.97;5005820;28;1406;-78
2023/04/02 04:27:51;;;;;;;;;;;;;;;3.97;100.00;101535.09;5008242;28;1294;-77
2023/04/02 04:30:24;;;;;;;;;;;;;;;3.98;100.00;101538.50;5006902;28;1588;-77
2023/04/02 04:32:57;;;;;;;;;;;;;;;3.95;100.00;101536.88;5005799;28;1902;-77
2023/04/02 04:35:28;;;;;;;;;;;;;;;3.95;100.00;101546.31;5008938;28;1366;-78
2023/04/02 04:38:02;;;;;;;;;;;;;;;3.96;100.00;101563.41;5006764;28;1433;-78
2023/04/02 04:40:30;;;;;;;;;;;;;;;3.93;100.00;101568.63;5008380;28;1387;-79
2023/04/02 04:42:58;;;;;;;;;;;;;;;3.92;100.00;101577.25;5004967;28;1474;-78
2023/04/02 04:45:29;;;;;;;;;;;;;;;3.89;100.00;101577.34;5013531;28;1205;-79
2023/04/02 04:48:03;;;;;;;;;;;;;;;3.88;100.00;101580.81;4990268;28;1778;-78
2023/04/02 04:50:34;;;;;;;;;;;;;;;3.86;100.00;101582.63;5007440;28;2164;-78
2023/04/02 04:53:14;;;;;;;;;;;;;;;3.83;100.00;101593.00;5001181;28;1949;-79
2023/04/02 04:55:42;;;;;;;;;;;;;;;3.81;99.99;101600.78;5005199;28;1407;-78
2023/04/02 04:58:17;;;;;;;;;;;;;;;3.81;100.00;101607.66;5007003;28;1237;-79
2023/04/02 05:01:01;;;;;;;;;;;;;;;3.77;100.00;101613.78;5008133;28;1409;-78
2023/04/02 05:03:29;;;;;;;;;;;;;;;3.69;100.00;101612.38;5001688;28;1348;-77
2023/04/02 05:05:58;;;;;;;;;;;;;;;3.62;99.56;101621.22;5004343;28;1476;-80
2023/04/02 05:08:26;;;;;;;;;;;;;;;3.59;99.45;101625.63;5008645;28;1397;-79
2023/04/02 05:10:56;;;;;;;;;;;;;;;3.49;98.37;101635.41;4998120;28;1240;-79
2023/04/02 05:13:40;;;;;;;;;;;;;;;3.45;97.85;101639.00;5000473;28;4879;-78
2023/04/02 05:16:12;;;;;;;;;;;;;;;3.36;97.32;101640.16;5003916;28;1455;-77
2023/04/02 05:18:44;;;;;;;;;;;;;;;3.32;96.95;101653.16;5005872;28;1570;-78
2023/04/02 05:21:12;;;;;;;;;;;;;;;3.29;97.58;101653.28;5001770;28;1510;-78
2023/04/02 05:23:57;;;;;;;;;;;;;;;3.25;97.72;101662.00;5007343;28;1601;-78
2023/04/02 05:26:29;;;;;;;;;;;;;;;3.23;97.23;101666.34;4989099;28;1395;-78
2023/04/02 05:29:05;;;;;;;;;;;;;;;3.17;97.03;101670.81;5008446;28;1180;-78
2023/04/02 05:31:36;;;;;;;;;;;;;;;3.11;97.25;101678.72;4992146;28;1230;-78
2023/04/02 05:34:02;;;;;;;;;;;;;;;3.14;97.75;101676.03;4998208;28;1939;-78
2023/04/02 05:36:28;;;;;;;;;;;;;;;3.13;97.27;101684.63;5006505;28;1106;-79
2023/04/02 05:38:55;;;;;;;;;;;;;;;3.11;96.72;101694.09;5003120;28;1352;-79
2023/04/02 05:41:25;;;;;;;;;;;;;;;3.11;95.73;101695.84;5006259;28;1234;-79
2023/04/02 05:44:04;;;;;;;;;;;;;;;3.09;96.48;101706.13;5004309;28;1234;-79
2023/04/02 05:46:32;;;;;;;;;;;;;;;3.09;95.98;101708.69;5003261;28;2496;-78
2023/04/02 05:48:58;;;;;;;;;;;;;;;3.09;95.65;101706.13;5004228;28;987;-78
2023/04/02 05:51:43;;;;;;;;;;;;;;;3.05;95.22;101717.41;5004535;28;1434;-78
2023/04/02 05:54:15;;;;;;;;;;;;;;;3.09;95.89;101718.94;5007476;28;1949;-79
2023/04/02 05:56:42;;;;;;;;;;;;;;;3.08;96.14;101727.53;5010020;28;1211;-79
2023/04/02 05:59:14;;;;;;;;;;;;;;;3.08;95.80;101737.78;5009614;28;1652;-78
2023/04/02 06:01:44;;;;;;;;;;;;;;;3.09;96.47;101739.44;5002964;28;1499;-78
2023/04/02 06:04:20;;;;;;;;;;;;;;;3.08;95.80;101742.91;4992317;28;1212;-78
2023/04/02 06:06:45;;;;;;;;;;;;;;;3.07;95.46;101756.59;5007057;28;1512;-79
2023/04/02 06:09:24;;;;;;;;;;;;;;;3.05;96.02;101753.28;4992195;28;1607;-78
2023/04/02 06:11:53;;;;;;;;;;;;;;;3.04;95.28;101766.97;5003669;28;1469;-78
2023/04/02 06:14:18;;;;;;;;;;;;;;;3.04;95.37;101769.53;5009899;28;4935;-78
2023/04/02 06:16:45;;;;;;;;;;;;;;;3.03;95.69;101770.41;5008809;28;1259;-78
2023/04/02 06:19:21;;;;;;;;;;;;;;;3.08;96.32;101778.78;5009090;28;1456;-79
2023/04/02 06:21:50;;;;;;;;;;;;;;;3.06;96.19;101785.69;5003261;28;1295;-78
2023/04/02 06:24:18;;;;;;;;;;;;;;;2.98;94.38;101792.78;5007375;28;1386;-78
2023/04/02 06:26:46;;;;;;;;;;;;;;;2.94;93.65;101801.50;5009905;28;1231;-78
2023/04/02 06:29:38;;;;;;;;;;;;;;;2.88;93.77;101804.28;5009966;28;1349;-78
2023/04/02 06:32:05;;;;;;;;;;;;;;;2.88;94.66;101806.84;5002499;28;1606;-79
2023/04/02 06:34:30;;;;;;;;;;;;;;;2.88;94.08;101817.91;5006924;28;1953;-78
2023/04/02 06:37:16;;;;;;;;;;;;;;;2.81;92.76;101815.59;5006571;28;1439;-79
2023/04/02 06:39:41;;;;;;;;;;;;;;;2.73;92.37;101817.56;5001522;28;1473;-79
2023/04/02 06:42:15;;;;;;;;;;;;;;;2.72;93.43;101827.00;5007697;28;2316;-79
2023/04/02 06:44:40;;;;;;;;;;;;;;;2.72;93.16;101836.41;4980349;28;1425;-79
2023/04/02 06:47:16;;;;;;;;;;;;;;;2.74;93.62;101850.00;5001674;28;1414;-79
2023/04/02 06:49:47;;;;;;;;;;;;;;;2.69;91.71;101856.97;5010625;28;1320;-78
2023/04/02 06:52:15;;;;;;;;;;;;;;;2.65;90.68;101862.22;4995064;28;1575;-78
2023/04/02 06:54:40;;;;;;;;;;;;;;;2.67;92.24;101867.28;5007522;28;1891;-78
2023/04/02 06:57:07;;;;;;;;;;;;;;;2.63;91.53;101869.09;5000119;28;1170;-79
2023/04/02 06:59:32;;;;;;;;;;;;;;;2.61;92.64;101865.75;5004627;28;1202;-79
2023/04/02 07:02:03;;;;;;;;;;;;;;;2.49;91.03;101876.38;5001361;28;1427;-78
2023/04/02 07:04:28;;;;;;;;;;;;;;;2.55;92.55;101886.44;5002645;28;1155;-79
2023/04/02 07:06:54;;;;;;;;;;;;;;;2.54;91.95;101889.88;5004671;28;1307;-79
2023/04/02 07:09:19;;;;;;;;;;;;;;;2.56;92.54;101913.72;4999833;28;1737;-79
2023/04/02 07:11:45;;;;;;;;;;;;;;;2.51;91.21;101915.56;4999953;28;1170;-78
2023/04/02 07:14:13;;;;;;;;;;;;;;;2.48;91.07;101925.94;4997618;28;4785;-79
2023/04/02 07:16:39;;;;;;;;;;;;;;;2.41;91.13;101924.44;4998858;28;1294;-79
2023/04/02 07:19:05;;;;;;;;;;;;;;;2.39;92.06;101931.31;4999115;28;1322;-79
2023/04/02 07:21:30;;;;;;;;;;;;;;;2.39;92.30;101946.66;5000269;28;1427;-79
2023/04/02 07:23:55;;;;;;;;;;;;;;;2.39;92.91;101941.56;5005555;28;1238;-79
2023/04/02 07:26:24;;;;;;;;;;;;;;;2.46;91.76;101944.75;4997998;28;1264;-79
2023/04/02 07:28:49;;;;;;;;;;;;;;;2.40;91.80;101948.34;5004987;28;1175;-79
2023/04/02 07:31:25;;;;;;;;;;;;;;;2.34;91.06;101966.44;4999883;28;1096;-79
2023/04/02 07:33:52;;;;;;;;;;;;;;;2.31;90.64;101969.94;4985201;28;1894;-78
2023/04/02 07:36:19;;;;;;;;;;;;;;;2.29;91.28;101975.97;4998383;28;1468;-78
2023/04/02 07:38:44;;;;;;;;;;;;;;;2.27;91.49;101977.75;5004588;28;2112;-78
2023/04/02 07:41:10;;;;;;;;;;;;;;;2.24;91.96;101972.72;5005040;28;1136;-78
2023/04/02 07:43:35;;;;;;;;;;;;;;;2.26;92.02;101970.97;5005223;28;1014;-79
2023/04/02 07:46:01;;;;;;;;;;;;;;;2.23;90.90;101981.28;5009225;28;1085;-79
2023/04/02 07:48:27;;;;;;;;;;;;;;;2.26;90.79;101986.31;5008179;28;1109;-79
2023/04/02 07:50:52;;;;;;;;;;;;;;;2.26;91.56;101976.06;5000020;28;1503;-79
2023/04/02 07:53:43;;;;;;;;;;;;;;;2.29;91.45;101981.09;5005889;28;1903;-79
2023/04/02 07:56:12;;;;;;;;;;;;;;;2.28;91.12;101975.13;5002025;28;1127;-78
2023/04/02 07:58:37;;;;;;;;;;;;;;;2.30;92.01;101993.88;4985490;28;1248;-79
2023/04/02 08:01:03;;;;;;;;;;;;;;;2.35;91.88;101986.03;5007062;28;1227;-79
2023/04/02 08:03:28;;;;;;;;;;;;;;;2.35;90.66;102001.41;5001324;28;1262;-78
2023/04/02 08:05:55;;;;;;;;;;;;;;;2.35;90.43;102006.50;4991791;28;1463;-78
2023/04/02 08:08:21;;;;;;;;;;;;;;;2.38;91.14;102003.88;5002312;28;1221;-77
2023/04/02 08:10:47;;;;;;;;;;;;;;;2.45;91.96;102002.81;5002140;28;1696;-79
2023/04/02 08:13:14;;;;;;;;;;;;;;;2.46;91.90;102009.63;5001885;28;4728;-79
2023/04/02 08:15:39;;;;;;;;;;;;;;;2.48;90.89;102020.66;5007752;28;1130;-79
2023/04/02 08:18:05;;;;;;;;;;;;;;;2.50;91.89;102026.56;4985680;28;1490;-78
2023/04/02 08:20:30;;;;;;;;;;;;;;;2.51;91.45;102020.56;5005002;28;1416;-79
2023/04/02 08:22:57;;;;;;;;;;;;;;;2.51;90.90;102033.38;4989403;28;1515;-78
2023/04/02 08:25:22;;;;;;;;;;;;;;;2.47;90.64;102021.56;5007148;28;1491;-77
2023/04/02 08:27:48;;;;;;;;;;;;;;;2.46;90.94;102035.22;5006327;28;1507;-78
2023/04/02 08:30:14;;;;;;;;;;;;;;;2.45;90.94;102041.22;5004084;28;1130;-77
2023/04/02 08:32:40;;;;;;;;;;;;;;;2.46;90.56;102055.69;4999569;28;1894;-79
2023/04/02 08:35:06;;;;;;;;;;;;;;;2.43;90.04;102068.59;5004560;28;2239;-78
2023/04/02 08:37:31;;;;;;;;;;;;;;;2.44;90.75;102066.88;5003653;28;1547;-78
2023/04/02 08:39:56;;;;;;;;;;;;;;;2.49;90.86;102065.88;5005895;28;1424;-79
2023/04/02 08:42:28;;;;;;;;;;;;;;;2.54;91.04;102074.28;5006420;28;1163;-78
2023/04/02 08:45:05;;;;;;;;;;;;;;;2.58;91.91;102081.00;5004975;28;1494;-78
2023/04/02 08:47:35;;;;;;;;;;;;;;;2.62;91.40;102085.13;5011643;28;1459;-78
2023/04/02 08:50:03;;;;;;;;;;;;;;;2.64;91.30;102083.38;5007653;28;1415;-78
2023/04/02 08:52:34;;;;;;;;;;;;;;;2.69;90.61;102092.63;5005787;28;1170;-79
2023/04/02 08:55:10;;;;;;;;;;;;;;;2.61;90.53;102101.38;5005527;28;1444;-79
2023/04/02 08:57:46;;;;;;;;;;;;;;;2.59;90.66;102110.00;5004950;28;2243;-78
2023/04/02 09:00:17;;;;;;;;;;;;;;;2.63;91.23;102112.41;5007420;28;1215;-79
2023/04/02 09:02:53;;;;;;;;;;;;;;;2.66;91.69;102114.91;5004016;28;1492;-79
2023/04/02 09:05:22;;;;;;;;;;;;;;;2.72;91.56;102118.19;5006883;28;1418;-79
2023/04/02 09:07:49;;;;;;;;;;;;;;;2.71;90.76;102126.75;5006514;28;1361;-79
2023/04/02 09:10:15;;;;;;;;;;;;;;;2.70;90.82;102119.94;5004039;28;1253;-78
2023/04/02 09:12:40;;;;;;;;;;;;;;;2.69;90.80;102138.75;5006683;28;1961;-79
2023/04/02 09:15:09;;;;;;;;;;;;;;;2.70;90.77;102140.44;5003048;28;4705;-79
2023/04/02 09:17:36;;;;;;;;;;;;;;;2.73;90.86;102140.34;5002914;28;1292;-79
2023/04/02 09:20:16;;;;;;;;;;;;;;;2.72;91.06;102148.91;5004719;28;1423;-78
2023/04/02 09:22:41;;;;;;;;;;;;;;;2.76;90.21;102150.53;4996901;28;1736;-79
2023/04/02 09:25:12;;;;;;;;;;;;;;;2.74;90.71;102154.81;4997217;28;1062;-79
2023/04/02 09:27:37;;;;;;;;;;;;;;;2.75;91.01;102165.03;4991191;28;1152;-79
2023/04/02 09:30:21;;;;;;;;;;;;;;;2.75;90.33;102164.19;4997341;28;2057;-79
2023/04/02 09:32:49;;;;;;;;;;;;;;;2.74;90.03;102171.03;5004702;28;1955;-79
2023/04/02 09:35:18;;;;;;;;;;;;;;;2.78;90.11;102171.81;5000410;28;1124;-79
2023/04/02 09:37:43;;;;;;;;;;;;;;;2.81;90.59;102174.25;5001951;28;1229;-80
2023/04/02 09:40:16;;;;;;;;;;;;;;;2.83;90.41;102182.78;5000063;28;1371;-79
2023/04/02 09:42:41;;;;;;;;;;;;;;;2.75;89.58;102174.44;4987451;28;1207;-79
2023/04/02 09:45:16;;;;;;;;;;;;;;;2.78;90.42;102184.63;4995861;28;1051;-79
2023/04/02 09:47:41;;;;;;;;;;;;;;;2.83;91.08;102198.16;4999019;28;1124;-78
2023/04/02 09:50:18;;;;;;;;;;;;;;;2.87;89.72;102192.06;5006479;28;994;-79
2023/04/02 09:52:43;;;;;;;;;;;;;;;2.88;89.75;102201.41;5004463;28;1963;-78
2023/04/02 09:55:17;;;;;;;;;;;;;;;2.90;89.21;102204.78;5000836;28;1424;-80
2023/04/02 09:57:43;;;;;;;;;;;;;;;2.93;89.67;102209.81;5001973;28;1216;-80
2023/04/02 10:00:18;;;;;;;;;;;;;;;2.87;88.92;102215.13;5006903;28;1308;-79
2023/04/02 10:02:45;;;;;;;;;;;;;;;2.90;89.38;102222.72;5003282;28;1179;-79
2023/04/02 10:05:23;;;;;;;;;;;;;;;2.91;89.74;102226.94;5009155;28;1450;-79
2023/04/02 10:07:49;;;;;;;;;;;;;;;2.98;90.05;102230.19;5005635;28;1300;-79
2023/04/02 10:10:15;;;;;;;;;;;;;;;2.97;90.00;102231.91;5002066;28;1205;-79
2023/04/02 10:12:41;;;;;;;;;;;;;;;3.02;89.47;102235.19;5001381;28;1964;-81
2023/04/02 10:15:13;;;;;;;;;;;;;;;3.04;88.44;102237.69;4988428;28;4769;-79
2023/04/02 10:17:38;;;;;;;;;;;;;;;3.02;88.23;102242.03;5005220;28;1269;-79
2023/04/02 10:20:24;;;;;;;;;;;;;;;3.05;88.99;102235.13;5005074;28;1357;-79
2023/04/02 10:22:50;;;;;;;;;;;;;;;3.09;88.58;102241.81;5005441;28;1268;-79
2023/04/02 10:25:16;;;;;;;;;;;;;;;3.13;88.75;102245.16;5003696;28;1471;-79
2023/04/02 10:27:56;;;;;;;;;;;;;;;3.18;88.86;102251.81;5005832;28;2148;-79
2023/04/02 10:30:25;;;;;;;;;;;;;;;3.20;88.16;102257.75;5006695;28;1364;-80
2023/04/02 10:32:53;;;;;;;;;;;;;;;3.21;87.58;102261.16;5004635;28;1907;-78
2023/04/02 10:35:18;;;;;;;;;;;;;;;3.22;87.61;102247.47;4998518;28;1456;-79
2023/04/02 10:37:50;;;;;;;;;;;;;;;3.32;88.54;102273.66;5003305;28;1356;-79
2023/04/02 10:40:54;;;;;;;;;;;;;;;3.34;88.21;102271.91;5006190;28;1162;-79
2023/04/02 10:43:28;;;;;;;;;;;;;;;3.29;87.16;102268.66;4949810;28;1484;-78
2023/04/02 10:46:02;;;;;;;;;;;;;;;3.31;87.53;102272.84;4948390;28;1283;-79
2023/04/02 10:48:37;;;;;;;;;;;;;;;3.28;86.66;102272.94;4970431;28;1457;-79
2023/04/02 10:51:04;;;;;;;;;;;;;;;3.25;86.29;102282.41;4991608;28;1611;-79
2023/04/02 10:53:30;;;;;;;;;;;;;;;3.27;87.66;102290.91;5000886;28;1906;-79
2023/04/02 10:56:02;;;;;;;;;;;;;;;3.28;86.41;102288.31;5010323;28;1079;-79
2023/04/02 10:58:28;;;;;;;;;;;;;;;3.31;86.38;102292.50;5005218;28;1998;-78
2023/04/02 11:00:57;;;;;;;;;;;;;;;3.27;86.15;102291.78;5004172;28;1060;-79
2023/04/02 11:03:42;;;;;;;;;;;;;;;3.36;87.61;102293.22;5009022;28;1102;-79
2023/04/02 11:06:24;;;;;;;;;;;;;;;3.42;87.53;102298.19;4992417;28;1459;-81
2023/04/02 11:08:51;;;;;;;;;;;;;;;3.45;86.32;102300.66;5006220;28;1066;-80
2023/04/02 11:11:19;;;;;;;;;;;;;;;3.44;85.41;102304.09;5001015;28;1275;-79
2023/04/02 11:13:47;;;;;;;;;;;;;;;3.44;85.48;102304.97;5004697;28;4843;-80
2023/04/02 11:16:14;;;;;;;;;;;;;;;3.65;85.66;102303.50;5001948;28;1111;-79
2023/04/02 11:18:40;;;;;;;;;;;;;;;3.78;85.98;102310.81;4998318;28;1383;-79
2023/04/02 11:21:07;;;;;;;;;;;;;;;3.95;86.43;102311.16;5004409;28;1399;-79
2023/04/02 11:23:38;;;;;;;;;;;;;;;4.17;84.52;102317.34;5002625;28;2216;-81
2023/04/02 11:26:28;;;;;;;;;;;;;;;4.22;84.47;102305.19;4999479;28;1079;-79
2023/04/02 11:29:20;;;;;;;;;;;;;;;4.39;82.81;102321.81;5009874;28;1317;-80
2023/04/02 11:31:46;;;;;;;;;;;;;;;4.50;83.36;102319.75;5005407;28;1148;-80
2023/04/02 11:34:34;;;;;;;;;;;;;;;4.46;82.07;102323.28;4990739;28;1977;-80
2023/04/02 11:37:00;;;;;;;;;;;;;;;4.52;82.10;102325.66;4983715;28;1421;-80
2023/04/02 11:39:45;;;;;;;;;;;;;;;4.69;83.38;102328.50;5002363;28;1144;-80
2023/04/02 11:42:23;;;;;;;;;;;;;;;4.92;80.68;102337.19;5006449;28;1044;-79
2023/04/02 11:44:48;;;;;;;;;;;;;;;4.96;82.71;102328.50;5007640;28;1127;-79
2023/04/02 11:47:21;;;;;;;;;;;;;;;5.01;82.46;102326.63;5003129;28;1083;-81
2023/04/02 11:50:03;;;;;;;;;;;;;;;5.16;83.32;102320.94;4989874;28;1241;-80
2023/04/02 11:52:36;;;;;;;;;;;;;;;5.40;81.70;102323.53;5007090;28;1462;-80
2023/04/02 11:55:19;;;;;;;;;;;;;;;5.55;80.71;102334.09;5007814;28;1288;-80
2023/04/02 11:57:49;;;;;;;;;;;;;;;5.62;79.45;102339.88;5002660;28;1354;-80
2023/04/02 12:00:22;;;;;;;;;;;;;;;5.70;78.75;102326.72;4990259;28;1456;-79
2023/04/02 12:03:06;;;;;;;;;;;;;;;5.84;78.35;102335.59;5006945;28;1234;-80
2023/04/02 12:05:41;;;;;;;;;;;;;;;5.75;77.63;102335.97;4997187;28;1230;-80
2023/04/02 12:08:10;;;;;;;;;;;;;;;5.77;77.06;102343.63;5008361;28;1162;-81
2023/04/02 12:10:53;;;;;;;;;;;;;;;5.90;76.57;102344.81;5002751;28;1198;-80
2023/04/02 12:13:19;;;;;;;;;;;;;;;6.02;76.50;102353.84;5001351;28;1971;-80
2023/04/02 12:15:45;;;;;;;;;;;;;;;6.02;77.45;102349.56;4999610;28;1162;-80
2023/04/02 12:18:14;;;;;;;;;;;;;;;6.13;77.73;102351.72;5005349;28;1267;-80
2023/04/02 12:20:39;;;;;;;;;;;;;;;6.25;78.30;102351.25;5008556;28;1182;-80
2023/04/02 12:23:04;;;;;;;;;;;;;;;6.33;77.25;102356.94;4998174;28;1314;-79
2023/04/02 12:25:39;;;;;;;;;;;;;;;6.42;75.77;102360.03;4995380;28;1161;-79
2023/04/02 12:28:05;;;;;;;;;;;;;;;6.44;75.55;102371.16;5007292;28;1494;-81
2023/04/02 12:30:30;;;;;;;;;;;;;;;6.43;74.86;102374.63;5009007;28;1191;-81
2023/04/02 12:32:56;;;;;;;;;;;;;;;6.55;75.09;102374.16;4995491;28;1910;-81
2023/04/02 12:35:32;;;;;;;;;;;;;;;6.53;74.90;102381.09;5006440;28;1135;-80
2023/04/02 12:37:57;;;;;;;;;;;;;;;6.54;73.13;102373.31;5003922;28;1332;-81
2023/04/02 12:40:23;;;;;;;;;;;;;;;6.56;72.93;102365.50;5004829;28;1155;-79
2023/04/02 12:42:48;;;;;;;;;;;;;;;6.65;73.33;102375.44;5004901;28;1135;-81
2023/04/02 12:45:23;;;;;;;;;;;;;;;6.65;71.70;102375.44;5007828;28;1237;-81
2023/04/02 12:47:49;;;;;;;;;;;;;;;6.67;72.03;102373.66;5006691;28;1150;-81
2023/04/02 12:50:15;;;;;;;;;;;;;;;6.75;72.01;102374.16;4997554;28;1273;-81
2023/04/02 12:52:44;;;;;;;;;;;;;;;6.81;68.68;102381.66;5006919;28;2085;-81
2023/04/02 12:55:18;;;;;;;;;;;;;;;6.78;71.26;102381.78;4998798;28;1726;-81
2023/04/02 12:57:47;;;;;;;;;;;;;;;6.73;69.04;102381.13;5001472;28;1233;-80
2023/04/02 13:00:19;;;;;;;;;;;;;;;6.83;70.45;102379.03;4991073;28;1205;-80
2023/04/02 13:02:47;;;;;;;;;;;;;;;6.83;70.64;102379.88;5003163;28;1376;-80
2023/04/02 13:05:12;;;;;;;;;;;;;;;6.89;71.43;102379.63;4994988;28;1109;-79
2023/04/02 13:07:37;;;;;;;;;;;;;;;6.93;70.28;102378.56;5005309;28;1356;-81
2023/04/02 13:10:04;;;;;;;;;;;;;;;6.90;69.29;102386.44;4998679;28;1073;-81